createdAt,value
2018-02-17T00:00:10.095Z,17.83
2018-02-17T00:02:44.875Z,17.20
2018-02-17T00:05:19.403Z,23.27
2018-02-17T00:07:53.942Z,23.47
2018-02-17T00:10:28.597Z,23.87
2018-02-17T00:13:02.761Z,22.37
2018-02-17T00:15:36.952Z,27.33
2018-02-17T00:18:11.634Z,17.30
2018-02-17T00:20:46.166Z,18.10
2018-02-17T00:23:20.514Z,24.07
2018-02-17T00:25:54.959Z,17.13
2018-02-17T00:28:29.038Z,20.63
2018-02-17T00:31:03.363Z,22.40
2018-02-17T00:33:37.604Z,21.20
2018-02-17T00:36:11.845Z,24.93
2018-02-17T00:38:47.292Z,23.30
2018-02-17T00:41:21.400Z,24.30
2018-02-17T00:43:55.307Z,21.50
2018-02-17T00:46:29.544Z,21.13
2018-02-17T00:49:03.340Z,19.07
2018-02-17T00:51:37.878Z,19.93
2018-02-17T00:54:12.734Z,18.90
2018-02-17T00:56:46.819Z,18.37
2018-02-17T00:59:20.730Z,16.60
2018-02-17T01:01:55.579Z,21.40
2018-02-17T01:04:29.622Z,18.10
2018-02-17T01:07:03.461Z,19.47
2018-02-17T01:09:37.091Z,18.63
2018-02-17T01:12:10.848Z,19.67
2018-02-17T01:14:44.951Z,19.53
2018-02-17T01:17:18.762Z,21.50
2018-02-17T01:19:53.027Z,18.40
2018-02-17T01:22:26.699Z,25.00
2018-02-17T01:25:00.507Z,20.03
2018-02-17T01:27:35.118Z,20.57
2018-02-17T01:30:09.876Z,21.87
2018-02-17T01:32:43.731Z,17.93
2018-02-17T01:35:18.101Z,21.37
2018-02-17T01:37:52.579Z,19.13
2018-02-17T01:40:26.923Z,27.23
2018-02-17T01:43:01.056Z,20.90
2018-02-17T01:45:35.086Z,17.33
2018-02-17T01:48:10.425Z,21.67
2018-02-17T01:50:44.535Z,23.23
2018-02-17T01:53:18.590Z,23.33
2018-02-17T01:55:53.139Z,21.17
2018-02-17T01:58:27.018Z,20.87
2018-02-17T02:01:00.766Z,24.63
2018-02-17T02:03:34.920Z,23.13
2018-02-17T02:06:09.755Z,24.90
2018-02-17T02:08:43.448Z,25.50
2018-02-17T02:11:17.402Z,23.20
2018-02-17T02:13:51.963Z,25.73
2018-02-17T02:16:25.941Z,24.83
2018-02-17T02:19:00.567Z,22.40
2018-02-17T02:21:34.718Z,21.20
2018-02-17T02:24:08.579Z,23.20
2018-02-17T02:26:42.351Z,22.37
2018-02-17T02:29:16.211Z,21.63
2018-02-17T02:31:50.629Z,20.03
2018-02-17T02:34:24.903Z,20.77
2018-02-17T02:36:58.875Z,23.23
2018-02-17T02:39:33.508Z,28.40
2018-02-17T02:42:07.544Z,21.73
2018-02-17T02:44:41.511Z,20.93
2018-02-17T02:47:15.436Z,20.10
2018-02-17T02:49:49.476Z,20.23
2018-02-17T02:52:23.200Z,25.37
2018-02-17T02:54:57.410Z,20.83
2018-02-17T02:57:33.606Z,23.47
2018-02-17T03:00:08.129Z,23.20
2018-02-17T03:02:42.691Z,21.23
2018-02-17T03:05:16.480Z,23.17
2018-02-17T03:07:50.246Z,21.57
2018-02-17T03:10:24.484Z,21.83
2018-02-17T03:12:59.022Z,19.23
2018-02-17T03:15:33.403Z,18.67
2018-02-17T03:18:07.127Z,19.27
2018-02-17T03:20:41.056Z,18.77
2018-02-17T03:23:14.860Z,18.57
2018-02-17T03:25:48.842Z,22.53
2018-02-17T03:28:22.696Z,22.50
2018-02-17T03:30:56.828Z,19.57
2018-02-17T03:33:31.057Z,20.97
2018-02-17T03:36:04.854Z,19.60
2018-02-17T03:38:38.568Z,23.17
2018-02-17T03:41:12.291Z,25.83
2018-02-17T03:43:46.232Z,21.50
2018-02-17T03:46:21.033Z,18.53
2018-02-17T03:48:55.639Z,22.37
2018-02-17T03:51:29.758Z,19.93
2018-02-17T03:54:03.401Z,18.57
2018-02-17T03:56:37.276Z,21.80
2018-02-17T03:59:11.197Z,17.27
2018-02-17T04:01:46.072Z,24.50
2018-02-17T04:04:20.035Z,20.13
2018-02-17T04:06:53.771Z,20.80
2018-02-17T04:09:27.654Z,22.73
2018-02-17T04:12:02.243Z,19.50
2018-02-17T04:14:36.315Z,19.37
2018-02-17T04:17:10.911Z,18.43
2018-02-17T04:19:44.862Z,22.77
2018-02-17T04:22:18.652Z,20.03
2018-02-17T04:24:52.317Z,19.73
2018-02-17T04:27:27.771Z,19.30
2018-02-17T04:30:02.178Z,19.20
2018-02-17T04:32:36.652Z,21.60
2018-02-17T04:35:10.379Z,25.43
2018-02-17T04:37:44.359Z,19.80
2018-02-17T04:40:23.739Z,19.50
2018-02-17T04:43:12.710Z,19.97
2018-02-17T04:45:51.348Z,15.47
2018-02-17T04:51:38.931Z,20.10
2018-02-17T04:54:30.335Z,19.37
2018-02-17T05:00:10.416Z,19.60
2018-02-17T05:02:50.267Z,17.73
2018-02-17T05:05:30.123Z,16.27
2018-02-17T05:08:14.311Z,17.10
2018-02-17T05:10:48.193Z,20.00
2018-02-17T05:13:22.806Z,17.40
2018-02-17T05:16:02.383Z,16.93
2018-02-17T05:18:42.304Z,15.30
2018-02-17T05:21:17.572Z,18.07
2018-02-17T05:24:02.875Z,15.67
2018-02-17T05:26:40.683Z,17.60
2018-02-17T05:29:17.075Z,16.10
2018-02-17T05:31:51.370Z,18.07
2018-02-17T05:34:25.274Z,18.50
2018-02-17T05:36:59.876Z,17.27
2018-02-17T05:39:35.135Z,18.00
2018-02-17T05:42:11.165Z,22.80
2018-02-17T05:45:03.676Z,19.03
2018-02-17T05:47:38.776Z,25.20
2018-02-17T05:50:14.306Z,24.70
2018-02-17T05:52:48.372Z,18.97
2018-02-17T05:55:22.931Z,18.50
2018-02-17T05:57:56.618Z,18.93
2018-02-17T06:00:30.406Z,15.10
2018-02-17T06:03:04.419Z,18.20
2018-02-17T06:05:39.680Z,19.93
2018-02-17T06:08:13.770Z,15.63
2018-02-17T06:10:48.279Z,19.90
2018-02-17T06:13:22.210Z,17.33
2018-02-17T06:15:56.177Z,16.70
2018-02-17T06:18:30.117Z,18.40
2018-02-17T06:21:03.858Z,16.33
2018-02-17T06:23:37.767Z,16.43
2018-02-17T06:26:13.122Z,17.33
2018-02-17T06:28:47.136Z,16.90
2018-02-17T06:31:21.056Z,18.93
2018-02-17T06:33:54.881Z,18.37
2018-02-17T06:36:28.645Z,15.97
2018-02-17T06:39:02.402Z,15.97
2018-02-17T06:41:37.033Z,21.17
2018-02-17T06:44:11.045Z,14.73
2018-02-17T06:46:45.636Z,23.63
2018-02-17T06:49:19.724Z,22.90
2018-02-17T06:51:54.322Z,20.70
2018-02-17T06:54:29.065Z,17.97
2018-02-17T06:57:03.036Z,18.70
2018-02-17T06:59:36.942Z,17.13
2018-02-17T07:02:10.766Z,16.93
2018-02-17T07:04:45.983Z,20.77
2018-02-17T07:07:19.923Z,20.27
2018-02-17T07:09:53.799Z,17.57
2018-02-17T07:12:28.547Z,22.10
2018-02-17T07:15:02.682Z,24.30
2018-02-17T07:17:37.571Z,26.87
2018-02-17T07:20:14.315Z,29.20
2018-02-17T07:22:48.118Z,23.60
2018-02-17T07:25:21.899Z,22.43
2018-02-17T07:27:55.737Z,24.20
2018-02-17T07:30:29.463Z,24.10
2018-02-17T07:33:03.227Z,22.90
2018-02-17T07:35:36.978Z,22.00
2018-02-17T07:38:10.682Z,21.23
2018-02-17T07:40:44.495Z,22.60
2018-02-17T07:43:18.779Z,24.40
2018-02-17T07:45:53.330Z,24.80
2018-02-17T07:48:27.070Z,20.93
2018-02-17T07:51:01.505Z,22.73
2018-02-17T07:53:36.363Z,26.67
2018-02-17T07:56:10.020Z,23.17
2018-02-17T07:58:43.646Z,26.03
2018-02-17T08:01:17.485Z,27.03
2018-02-17T08:03:51.209Z,26.43
2018-02-17T08:06:25.738Z,27.03
2018-02-17T08:08:59.567Z,26.67
2018-02-17T08:11:33.606Z,29.23
2018-02-17T08:14:07.543Z,31.97
2018-02-17T08:16:41.392Z,28.07
2018-02-17T08:19:15.171Z,25.30
2018-02-17T08:21:49.836Z,28.07
2018-02-17T08:24:24.310Z,28.10
2018-02-17T08:26:58.151Z,30.87
2018-02-17T08:29:32.132Z,27.77
2018-02-17T08:32:06.427Z,28.33
2018-02-17T08:34:40.082Z,27.40
2018-02-17T08:37:14.773Z,25.63
2018-02-17T08:39:48.415Z,31.13
2018-02-17T08:42:22.228Z,26.27
2018-02-17T08:44:56.690Z,23.97
2018-02-17T08:47:30.958Z,27.60
2018-02-17T08:50:05.811Z,28.80
2018-02-17T08:52:41.314Z,29.80
2018-02-17T08:55:16.620Z,28.53
2018-02-17T08:57:51.658Z,25.57
2018-02-17T09:00:26.616Z,28.47
2018-02-17T09:03:00.748Z,27.20
2018-02-17T09:05:34.503Z,24.63
2018-02-17T09:08:09.178Z,24.17
2018-02-17T09:10:50.279Z,25.10
2018-02-17T09:13:25.145Z,26.87
2018-02-17T09:15:59.801Z,27.60
2018-02-17T09:18:33.787Z,24.53
2018-02-17T09:21:09.186Z,26.37
2018-02-17T09:23:43.518Z,24.67
2018-02-17T09:26:18.190Z,23.80
2018-02-17T09:28:51.993Z,27.93
2018-02-17T09:31:25.861Z,24.63
2018-02-17T09:33:59.941Z,24.63
2018-02-17T09:36:33.785Z,28.90
2018-02-17T09:39:08.322Z,29.83
2018-02-17T09:41:42.655Z,29.47
2018-02-17T09:44:17.447Z,26.33
2018-02-17T09:46:51.982Z,30.27
2018-02-17T09:49:26.094Z,25.47
2018-02-17T09:52:00.586Z,29.47
2018-02-17T09:54:34.667Z,25.97
2018-02-17T09:57:08.584Z,27.40
2018-02-17T09:59:43.173Z,27.30
2018-02-17T10:02:17.308Z,29.97
2018-02-17T10:04:51.201Z,23.93
2018-02-17T10:07:24.939Z,30.73
2018-02-17T10:09:59.719Z,24.57
2018-02-17T10:12:33.743Z,27.43
2018-02-17T10:15:08.454Z,29.03
2018-02-17T10:17:43.467Z,22.87
2018-02-17T10:20:17.617Z,24.30
2018-02-17T10:22:52.193Z,22.20
2018-02-17T10:25:26.073Z,29.90
2018-02-17T10:28:01.166Z,23.20
2018-02-17T10:30:36.019Z,24.57
2018-02-17T10:33:10.024Z,24.67
2018-02-17T10:35:44.134Z,24.07
2018-02-17T10:38:18.822Z,20.70
2018-02-17T10:40:53.575Z,22.57
2018-02-17T10:43:27.527Z,24.07
2018-02-17T10:46:01.421Z,19.70
2018-02-17T10:48:36.010Z,22.30
2018-02-17T10:51:10.772Z,25.10
2018-02-17T10:53:45.259Z,27.37
2018-02-17T10:56:19.915Z,20.20
2018-02-17T10:58:54.178Z,19.57
2018-02-17T11:01:27.839Z,19.77
2018-02-17T11:04:03.361Z,20.60
2018-02-17T11:06:37.623Z,18.33
2018-02-17T11:09:11.362Z,20.33
2018-02-17T11:11:46.021Z,22.73
2018-02-17T11:14:20.028Z,17.97
2018-02-17T11:16:53.905Z,20.50
2018-02-17T11:19:28.530Z,25.57
2018-02-17T11:22:03.038Z,22.20
2018-02-17T11:24:36.661Z,22.47
2018-02-17T11:27:10.483Z,21.57
2018-02-17T11:29:45.023Z,20.73
2018-02-17T11:32:18.790Z,22.30
2018-02-17T11:34:52.531Z,20.93
2018-02-17T11:37:26.500Z,20.63
2018-02-17T11:40:00.494Z,20.73
2018-02-17T11:42:35.780Z,21.73
2018-02-17T11:45:10.211Z,24.33
2018-02-17T11:47:43.983Z,21.57
2018-02-17T11:50:17.662Z,25.87
2018-02-17T11:52:51.732Z,23.33
2018-02-17T11:55:25.947Z,21.30
2018-02-17T11:57:59.861Z,24.33
2018-02-17T12:00:33.638Z,22.83
2018-02-17T12:03:07.943Z,22.87
2018-02-17T12:05:42.483Z,25.20
2018-02-17T12:08:17.107Z,24.07
2018-02-17T12:10:51.214Z,22.53
2018-02-17T12:13:25.062Z,26.27
2018-02-17T12:15:58.791Z,23.90
2018-02-17T12:18:32.485Z,20.73
2018-02-17T12:21:07.065Z,24.37
2018-02-17T12:23:41.579Z,21.77
2018-02-17T12:26:15.880Z,22.60
2018-02-17T12:28:49.978Z,21.80
2018-02-17T12:31:23.915Z,27.03
2018-02-17T12:33:58.018Z,22.40
2018-02-17T12:36:32.143Z,23.73
2018-02-17T12:39:06.051Z,23.53
2018-02-17T12:41:39.840Z,25.00
2018-02-17T12:44:13.807Z,23.23
2018-02-17T12:46:47.577Z,21.70
2018-02-17T12:49:21.877Z,27.53
2018-02-17T12:51:56.570Z,23.83
2018-02-17T12:54:30.569Z,23.73
2018-02-17T12:57:04.424Z,25.47
2018-02-17T12:59:38.337Z,26.07
2018-02-17T13:02:12.826Z,26.17
2018-02-17T13:04:47.019Z,23.67
2018-02-17T13:07:21.449Z,24.97
2018-02-17T13:09:56.023Z,23.87
2018-02-17T13:12:30.118Z,21.33
2018-02-17T13:15:04.223Z,23.83
2018-02-17T13:17:38.754Z,24.47
2018-02-17T13:20:13.987Z,21.70
2018-02-17T13:22:47.793Z,22.13
2018-02-17T13:25:22.223Z,24.87
2018-02-17T13:27:56.727Z,20.80
2018-02-17T13:30:31.367Z,22.07
2018-02-17T13:33:05.512Z,22.90
2018-02-17T13:35:39.379Z,22.70
2018-02-17T13:38:13.896Z,24.83
2018-02-17T13:40:48.966Z,21.10
2018-02-17T13:43:23.174Z,25.30
2018-02-17T13:45:58.281Z,24.27
2018-02-17T13:48:33.707Z,21.40
2018-02-17T13:51:08.350Z,24.53
2018-02-17T13:53:45.672Z,22.83
2018-02-17T13:56:19.537Z,21.43
2018-02-17T13:58:54.251Z,21.07
2018-02-17T14:01:28.235Z,24.67
2018-02-17T14:04:02.124Z,20.83
2018-02-17T14:06:37.467Z,21.47
2018-02-17T14:09:11.952Z,21.30
2018-02-17T14:11:46.160Z,24.57
2018-02-17T14:14:19.903Z,22.67
2018-02-17T14:16:54.617Z,20.43
2018-02-17T14:19:28.691Z,27.03
2018-02-17T14:22:02.983Z,25.87
2018-02-17T14:24:36.831Z,22.70
2018-02-17T14:27:11.488Z,22.50
2018-02-17T14:29:45.636Z,23.50
2018-02-17T14:32:19.455Z,21.20
2018-02-17T14:34:53.883Z,27.40
2018-02-17T14:37:28.076Z,25.67
2018-02-17T14:40:01.730Z,23.57
2018-02-17T14:42:35.571Z,19.70
2018-02-17T14:45:09.349Z,22.53
2018-02-17T14:47:43.954Z,23.33
2018-02-17T14:50:18.067Z,21.47
2018-02-17T14:52:53.126Z,21.00
2018-02-17T14:55:27.133Z,25.53
2018-02-17T14:58:01.752Z,22.53
2018-02-17T15:00:35.764Z,26.03
2018-02-17T15:03:10.104Z,26.63
2018-02-17T15:05:45.287Z,24.77
2018-02-17T15:08:19.479Z,22.53
2018-02-17T15:10:53.205Z,22.60
2018-02-17T15:13:27.997Z,19.77
2018-02-17T15:16:01.976Z,21.50
2018-02-17T15:18:35.941Z,23.90
2018-02-17T15:21:09.888Z,20.00
2018-02-17T15:23:43.722Z,30.07
2018-02-17T15:26:17.518Z,22.87
2018-02-17T15:28:51.668Z,21.93
2018-02-17T15:31:25.545Z,20.77
2018-02-17T15:33:59.374Z,20.53
2018-02-17T15:36:34.002Z,22.87
2018-02-17T15:39:07.861Z,21.40
2018-02-17T15:41:41.687Z,27.43
2018-02-17T15:44:15.550Z,24.37
2018-02-17T15:46:49.169Z,18.87
2018-02-17T15:49:23.121Z,24.47
2018-02-17T15:51:56.993Z,24.03
2018-02-17T15:54:30.824Z,22.40
2018-02-17T15:57:04.811Z,21.87
2018-02-17T15:59:38.607Z,23.10
2018-02-17T16:02:12.224Z,22.77
2018-02-17T16:04:46.027Z,26.23
2018-02-17T16:07:19.830Z,24.53
2018-02-17T16:09:53.568Z,25.10
2018-02-17T16:12:27.434Z,20.77
2018-02-17T16:15:01.105Z,20.27
2018-02-17T16:17:34.922Z,20.17
2018-02-17T16:20:09.095Z,20.23
2018-02-17T16:22:43.723Z,20.33
2018-02-17T16:25:19.231Z,22.80
2018-02-17T16:27:53.199Z,24.10
2018-02-17T16:30:26.868Z,28.63
2018-02-17T16:33:01.551Z,25.07
2018-02-17T16:35:36.079Z,27.57
2018-02-17T16:38:10.977Z,22.23
2018-02-17T16:40:45.629Z,22.63
2018-02-17T16:43:19.884Z,28.57
2018-02-17T16:45:54.749Z,21.33
2018-02-17T16:48:28.777Z,23.07
2018-02-17T16:51:03.462Z,24.00
2018-02-17T16:53:37.103Z,25.00
2018-02-17T16:56:10.951Z,24.63
2018-02-17T16:58:45.690Z,24.23
2018-02-17T17:01:19.710Z,23.87
2018-02-17T17:03:53.537Z,24.10
2018-02-17T17:06:27.329Z,22.10
2018-02-17T17:09:01.756Z,22.80
2018-02-17T17:11:35.649Z,23.37
2018-02-17T17:14:09.615Z,23.50
2018-02-17T17:16:44.422Z,24.30
2018-02-17T17:19:18.165Z,23.83
2018-02-17T17:21:53.596Z,22.83
2018-02-17T17:24:28.740Z,24.53
2018-02-17T17:27:02.678Z,20.30
2018-02-17T17:29:37.331Z,25.60
2018-02-17T17:32:12.296Z,24.83
2018-02-17T17:34:47.089Z,22.73
2018-02-17T17:37:21.248Z,23.40
2018-02-17T17:39:54.956Z,22.93
2018-02-17T17:42:28.810Z,22.53
2018-02-17T17:45:02.794Z,21.97
2018-02-17T17:47:36.724Z,27.33
2018-02-17T17:50:10.747Z,24.40
2018-02-17T17:52:45.129Z,24.70
2018-02-17T17:55:18.880Z,24.93
2018-02-17T17:57:52.849Z,22.13
2018-02-17T18:00:27.522Z,24.37
2018-02-17T18:03:01.353Z,28.23
2018-02-17T18:05:36.113Z,26.83
2018-02-17T18:08:09.980Z,24.50
2018-02-17T18:10:44.617Z,21.17
2018-02-17T18:13:18.879Z,27.20
2018-02-17T18:15:53.335Z,21.73
2018-02-17T18:18:27.240Z,21.83
2018-02-17T18:21:00.962Z,20.57
2018-02-17T18:23:35.606Z,20.53
2018-02-17T18:26:09.719Z,21.40
2018-02-17T18:28:43.557Z,24.83
2018-02-17T18:31:18.459Z,25.73
2018-02-17T18:33:52.816Z,24.23
2018-02-17T18:36:27.592Z,27.77
2018-02-17T18:39:01.552Z,25.40
2018-02-17T18:41:36.279Z,29.37
2018-02-17T18:44:11.250Z,23.27
2018-02-17T18:46:45.087Z,26.13
2018-02-17T18:49:18.802Z,28.13
2018-02-17T18:51:52.511Z,27.57
2018-02-17T18:54:27.130Z,33.03
2018-02-17T18:57:01.719Z,26.83
2018-02-17T18:59:36.692Z,24.23
2018-02-17T19:02:11.853Z,25.73
2018-02-17T19:04:45.928Z,28.10
2018-02-17T19:07:19.735Z,28.53
2018-02-17T19:09:53.932Z,25.20
2018-02-17T19:12:28.382Z,25.80
2018-02-17T19:15:02.939Z,27.87
2018-02-17T19:17:36.906Z,27.23
2018-02-17T19:20:11.042Z,26.83
2018-02-17T19:22:46.558Z,26.20
2018-02-17T19:25:20.646Z,23.43
2018-02-17T19:27:55.107Z,25.40
2018-02-17T19:30:29.149Z,26.47
2018-02-17T19:33:03.054Z,27.57
2018-02-17T19:35:36.947Z,29.60
2018-02-17T19:38:11.471Z,26.47
2018-02-17T19:40:45.837Z,28.83
2018-02-17T19:43:21.568Z,26.73
2018-02-17T19:45:56.533Z,29.67
2018-02-17T19:48:31.903Z,24.73
2018-02-17T19:51:07.593Z,28.87
2018-02-17T19:53:41.739Z,27.03
2018-02-17T19:56:15.686Z,28.97
2018-02-17T19:58:50.191Z,25.90
2018-02-17T20:01:24.951Z,24.87
2018-02-17T20:03:59.096Z,30.23
2018-02-17T20:06:33.002Z,30.17
2018-02-17T20:09:08.610Z,26.83
2018-02-17T20:11:42.457Z,29.30
2018-02-17T20:14:17.241Z,25.20
2018-02-17T20:16:51.911Z,28.93
2018-02-17T20:19:25.863Z,30.47
2018-02-17T20:21:59.695Z,29.97
2018-02-17T20:24:33.453Z,26.70
2018-02-17T20:27:09.214Z,28.33
2018-02-17T20:29:43.025Z,32.03
2018-02-17T20:32:16.964Z,28.50
2018-02-17T20:34:52.169Z,29.03
2018-02-17T20:37:26.515Z,30.17
2018-02-17T20:40:00.489Z,32.50
2018-02-17T20:42:35.201Z,28.27
2018-02-17T20:45:09.149Z,37.23
2018-02-17T20:47:43.832Z,29.13
2018-02-17T20:50:17.816Z,28.30
2018-02-17T20:52:51.737Z,29.83
2018-02-17T20:55:26.302Z,29.77
2018-02-17T20:58:00.454Z,30.10
2018-02-17T21:00:34.529Z,31.53
2018-02-17T21:03:08.653Z,31.67
2018-02-17T21:05:43.154Z,32.33
2018-02-17T21:08:16.970Z,37.63
2018-02-17T21:10:52.319Z,30.20
2018-02-17T21:13:26.474Z,36.80
2018-02-17T21:16:01.061Z,38.20
2018-02-17T21:18:36.118Z,28.27
2018-02-17T21:21:10.132Z,31.97
2018-02-17T21:23:43.901Z,27.10
2018-02-17T21:26:17.845Z,32.27
2018-02-17T21:28:51.492Z,32.67
2018-02-17T21:31:25.350Z,35.40
2018-02-17T21:33:59.546Z,37.60
2018-02-17T21:36:33.234Z,30.30
2018-02-17T21:39:07.786Z,28.40
2018-02-17T21:41:41.803Z,36.27
2018-02-17T21:44:15.724Z,33.33
2018-02-17T21:46:50.084Z,34.67
2018-02-17T21:49:24.792Z,36.87
2018-02-17T21:51:58.415Z,28.93
2018-02-17T21:54:32.264Z,40.17
2018-02-17T21:57:06.858Z,31.73
2018-02-17T21:59:41.023Z,31.93
2018-02-17T22:02:15.898Z,31.50
2018-02-17T22:04:50.195Z,35.33
2018-02-17T22:07:23.884Z,36.67
2018-02-17T22:09:57.792Z,34.10
2018-02-17T22:12:31.590Z,32.27
2018-02-17T22:15:05.339Z,31.50
2018-02-17T22:17:39.315Z,31.20
2018-02-17T22:20:13.352Z,30.83
2018-02-17T22:22:48.811Z,32.97
2018-02-17T22:25:22.874Z,32.50
2018-02-17T22:27:56.699Z,30.83
2018-02-17T22:30:30.632Z,33.73
2018-02-17T22:33:04.778Z,41.00
2018-02-17T22:35:38.918Z,29.17
2018-02-17T22:38:12.856Z,30.00
2018-02-17T22:40:47.217Z,33.40
2018-02-17T22:43:21.619Z,29.37
2018-02-17T22:45:55.673Z,34.03
2018-02-17T22:48:30.196Z,32.10
2018-02-17T22:51:04.044Z,34.13
2018-02-17T22:53:37.777Z,34.57
2018-02-17T22:56:12.305Z,37.87
2018-02-17T22:58:46.212Z,31.53
2018-02-17T23:01:20.145Z,35.30
2018-02-17T23:03:53.979Z,32.13
2018-02-17T23:06:28.159Z,35.83
2018-02-17T23:09:02.392Z,31.20
2018-02-17T23:11:36.489Z,36.30
2018-02-17T23:14:10.610Z,32.57
2018-02-17T23:16:44.454Z,32.73
2018-02-17T23:19:19.200Z,36.43
2018-02-17T23:21:54.948Z,34.67
2018-02-17T23:24:29.855Z,32.90
2018-02-17T23:27:03.946Z,32.83
2018-02-17T23:29:38.041Z,32.77
2018-02-17T23:32:11.832Z,32.23
2018-02-17T23:34:45.757Z,30.70
2018-02-17T23:37:20.620Z,35.43
2018-02-17T23:39:54.727Z,34.47
2018-02-17T23:42:28.612Z,37.43
2018-02-17T23:45:02.313Z,33.27
2018-02-17T23:47:36.115Z,38.37
2018-02-17T23:50:10.068Z,33.83
2018-02-17T23:52:44.685Z,33.47
2018-02-17T23:55:19.230Z,28.40
2018-02-17T23:57:54.174Z,34.27
